Time;durP1;ratioP1;P1;durP2;ratioP2;P2;SDS_P1;SDS_P2;PMS_P1;PMS_P2;Temp;Humidity;BMP_temperature;BMP_pressure;BME280_temperature;BME280_humidity;BME280_pressure;Samples;Min_cycle;Max_cycle;Signal;HPM_P1;HPM_P2
2022/07/27 00:02:16;;;;;;;2.90;1.40;;;14.80;99.90;;;;;;5116142;28;20256;-65
2022/07/27 00:04:43;;;;;;;2.83;1.30;;;14.80;99.90;;;;;;5116055;28;20207;-65
2022/07/27 00:07:10;;;;;;;3.10;1.10;;;14.80;99.90;;;;;;5115576;28;20233;-65
2022/07/27 00:09:36;;;;;;;5.07;1.30;;;14.70;99.90;;;;;;5115643;28;20242;-65
2022/07/27 00:12:03;;;;;;;3.07;1.20;;;14.60;99.90;;;;;;5116134;28;20623;-65
2022/07/27 00:14:31;;;;;;;4.77;1.17;;;14.60;99.90;;;;;;5115969;27;20574;-65
2022/07/27 00:16:58;;;;;;;1.27;0.83;;;14.60;99.90;;;;;;5115634;28;20203;-65
2022/07/27 00:19:25;;;;;;;3.60;1.20;;;14.60;99.90;;;;;;5115402;28;20231;-65
2022/07/27 00:21:52;;;;;;;4.97;1.50;;;14.60;99.90;;;;;;5115680;28;20203;-66
2022/07/27 00:24:18;;;;;;;2.60;1.10;;;14.50;99.90;;;;;;5115770;28;20280;-65
2022/07/27 00:26:45;;;;;;;2.93;1.10;;;14.50;99.90;;;;;;5115415;27;20298;-65
2022/07/27 00:29:12;;;;;;;2.37;1.10;;;14.40;99.90;;;;;;5115597;28;20219;-65
2022/07/27 00:31:40;;;;;;;3.60;1.23;;;14.40;99.90;;;;;;5115736;28;20256;-65
2022/07/27 00:34:06;;;;;;;4.03;1.53;;;14.40;99.90;;;;;;5115596;28;20268;-65
2022/07/27 00:36:33;;;;;;;2.47;1.10;;;14.50;99.90;;;;;;5114924;28;20211;-65
2022/07/27 00:39:00;;;;;;;2.10;0.93;;;14.50;99.90;;;;;;5115611;28;20203;-65
2022/07/27 00:41:27;;;;;;;1.80;1.17;;;14.50;99.90;;;;;;5115456;28;20625;-65
2022/07/27 00:43:55;;;;;;;5.50;1.30;;;14.50;99.90;;;;;;5115432;28;20272;-65
2022/07/27 00:46:23;;;;;;;5.33;1.40;;;14.50;99.90;;;;;;5114825;28;20208;-65
2022/07/27 00:48:51;;;;;;;3.83;1.50;;;14.50;99.90;;;;;;5115159;28;20633;-65
2022/07/27 00:51:19;;;;;;;2.37;1.30;;;14.60;99.90;;;;;;5115199;28;20318;-65
2022/07/27 00:53:48;;;;;;;1.47;1.00;;;14.60;99.90;;;;;;5115209;27;20211;-65
2022/07/27 00:56:15;;;;;;;3.83;1.27;;;14.60;99.90;;;;;;5114821;28;20260;-65
2022/07/27 00:58:44;;;;;;;6.23;1.63;;;14.60;99.90;;;;;;5114532;28;20204;-65
2022/07/27 01:01:11;;;;;;;4.50;1.27;;;14.60;99.90;;;;;;5114723;28;20219;-65
2022/07/27 01:03:37;;;;;;;4.73;1.20;;;14.60;99.90;;;;;;5114838;28;20207;-65
2022/07/27 01:06:06;;;;;;;3.97;0.97;;;14.60;99.90;;;;;;5114748;28;20264;-65
2022/07/27 01:08:33;;;;;;;3.90;1.30;;;14.60;99.90;;;;;;5114560;28;20674;-65
2022/07/27 01:11:01;;;;;;;4.13;1.37;;;14.60;1.00;;;;;;5114819;28;20243;-65
2022/07/27 01:13:28;;;;;;;2.50;1.40;;;14.60;1.00;;;;;;5114647;28;20199;-65
2022/07/27 01:15:56;;;;;;;3.30;1.30;;;14.60;1.00;;;;;;5114414;28;20207;-65
2022/07/27 01:18:29;;;;;;;3.10;1.30;;;14.50;1.00;;;;;;5114676;27;20215;-65
2022/07/27 01:20:56;;;;;;;2.40;1.10;;;14.50;1.00;;;;;;5114712;28;20234;-65
2022/07/27 01:23:25;;;;;;;5.97;1.40;;;14.50;1.00;;;;;;5114530;28;20199;-65
2022/07/27 01:25:52;;;;;;;2.33;1.10;;;14.40;1.00;;;;;;5114302;28;20324;-65
2022/07/27 01:28:19;;;;;;;2.23;1.20;;;14.40;1.00;;;;;;5114415;28;20673;-65
2022/07/27 01:30:46;;;;;;;1.40;1.20;;;14.40;1.00;;;;;;5114206;28;20236;-65
2022/07/27 01:33:13;;;;;;;3.80;1.33;;;14.40;1.00;;;;;;5114450;28;20210;-65
2022/07/27 01:35:40;;;;;;;4.83;1.60;;;14.40;1.00;;;;;;5114554;28;20207;-65
2022/07/27 01:38:08;;;;;;;3.97;1.50;;;14.30;1.00;;;;;;5113941;28;20246;-65
2022/07/27 01:40:38;;;;;;;5.83;1.30;;;14.30;1.00;;;;;;5114251;28;20268;-64
2022/07/27 01:43:05;;;;;;;2.17;1.00;;;14.20;1.00;;;;;;5114119;28;20556;-64
2022/07/27 01:45:32;;;;;;;3.23;1.17;;;14.20;43.60;;;;;;5114282;28;20290;-65
2022/07/27 01:47:58;;;;;;;3.00;1.50;;;14.30;99.90;;;;;;5113758;28;20265;-65
2022/07/27 01:50:25;;;;;;;2.77;1.40;;;14.30;99.90;;;;;;5113778;28;20231;-65
2022/07/27 01:52:51;;;;;;;4.37;1.70;;;14.20;99.90;;;;;;5113959;27;20624;-65
2022/07/27 01:55:18;;;;;;;5.53;1.60;;;14.20;99.90;;;;;;5113878;28;20268;-65
2022/07/27 01:57:46;;;;;;;4.07;1.60;;;14.20;99.90;;;;;;5113378;28;20207;-65
2022/07/27 02:00:13;;;;;;;5.77;1.47;;;14.10;99.90;;;;;;5113637;28;20261;-65
2022/07/27 02:02:40;;;;;;;4.23;1.33;;;14.00;1.00;;;;;;5113730;28;20200;-65
2022/07/27 02:05:10;;;;;;;2.40;1.40;;;13.90;99.90;;;;;;5113769;28;20290;-65
2022/07/27 02:07:37;;;;;;;5.63;1.43;;;13.90;99.90;;;;;;5113343;28;20627;-65
2022/07/27 02:10:04;;;;;;;2.73;1.27;;;13.90;1.00;;;;;;5113217;28;20581;-65
2022/07/27 02:12:36;;;;;;;2.60;1.37;;;13.90;1.00;;;;;;5112699;28;20755;-65
2022/07/27 02:15:06;;;;;;;5.87;1.40;;;13.90;99.90;;;;;;5113748;28;20199;-65
2022/07/27 02:17:34;;;;;;;3.97;1.87;;;13.80;99.90;;;;;;5113231;28;20268;-65
2022/07/27 02:20:00;;;;;;;4.47;1.40;;;13.70;52.50;;;;;;5113352;28;20238;-65
2022/07/27 02:22:27;;;;;;;2.93;1.50;;;13.80;73.30;;;;;;5113226;28;20287;-65
2022/07/27 02:24:54;;;;;;;2.47;1.40;;;13.80;1.00;;;;;;5113282;28;20208;-65
2022/07/27 02:27:20;;;;;;;3.40;1.93;;;13.60;99.90;;;;;;5113002;28;20256;-65
2022/07/27 02:29:47;;;;;;;9.00;1.90;;;13.50;99.90;;;;;;5113244;27;20234;-65
2022/07/27 02:32:15;;;;;;;4.47;2.00;;;13.40;1.00;;;;;;5113413;28;20206;-65
2022/07/27 02:34:42;;;;;;;3.73;2.00;;;13.30;1.00;;;;;;5113194;28;20210;-65
2022/07/27 02:37:09;;;;;;;6.00;2.03;;;13.30;1.00;;;;;;5112596;28;20227;-65
2022/07/27 02:39:35;;;;;;;4.77;2.17;;;13.30;1.00;;;;;;5113250;28;20232;-65
2022/07/27 02:42:02;;;;;;;3.47;2.17;;;13.20;1.00;;;;;;5113074;28;20207;-65
2022/07/27 02:44:29;;;;;;;3.43;2.13;;;13.10;1.00;;;;;;5113096;28;20210;-64
2022/07/27 02:46:56;;;;;;;3.53;2.37;;;13.10;1.00;;;;;;5112566;28;20730;-64
2022/07/27 02:49:24;;;;;;;10.43;2.83;;;13.10;4.60;;;;;;5112692;28;20238;-64
2022/07/27 02:51:52;;;;;;;5.27;1.90;;;13.10;6.70;;;;;;5112602;28;20255;-64
2022/07/27 02:54:19;;;;;;;3.83;1.93;;;13.00;8.00;;;;;;5112958;28;20210;-64
2022/07/27 02:56:46;;;;;;;3.30;1.80;;;13.00;9.50;;;;;;5112599;28;20210;-64
2022/07/27 02:59:12;;;;;;;5.40;2.03;;;13.10;9.50;;;;;;5112622;28;20207;-64
2022/07/27 03:01:39;;;;;;;3.90;1.70;;;13.10;9.50;;;;;;5112723;28;20258;-64
2022/07/27 03:04:06;;;;;;;3.57;2.17;;;13.00;9.70;;;;;;5112590;28;20215;-64
2022/07/27 03:06:34;;;;;;;3.77;1.70;;;13.00;10.30;;;;;;5112110;28;20669;-64
2022/07/27 03:09:01;;;;;;;5.17;2.10;;;13.00;11.20;;;;;;5112467;27;20204;-64
2022/07/27 03:11:28;;;;;;;4.17;1.90;;;12.90;12.20;;;;;;5112910;28;20203;-64
2022/07/27 03:13:55;;;;;;;4.20;1.47;;;12.90;14.20;;;;;;5112575;27;20265;-65
2022/07/27 03:16:22;;;;;;;5.90;2.27;;;12.90;17.10;;;;;;5112195;28;20286;-65
2022/07/27 03:18:48;;;;;;;3.73;1.73;;;12.80;20.00;;;;;;5112102;28;20215;-64
2022/07/27 03:21:15;;;;;;;5.47;2.10;;;12.80;24.60;;;;;;5112141;28;20773;-64
2022/07/27 03:23:43;;;;;;;3.10;1.90;;;12.70;29.30;;;;;;5112366;28;20210;-65
2022/07/27 03:26:10;;;;;;;6.53;2.00;;;12.70;38.20;;;;;;5112161;28;20202;-64
2022/07/27 03:28:37;;;;;;;3.70;2.20;;;12.60;52.40;;;;;;5112311;28;20627;-64
2022/07/27 03:31:03;;;;;;;6.57;2.20;;;12.60;56.20;;;;;;5112336;28;20231;-66
2022/07/27 03:33:30;;;;;;;3.20;1.80;;;12.60;59.60;;;;;;5112306;28;20204;-65
2022/07/27 03:35:57;;;;;;;3.93;1.97;;;12.60;62.50;;;;;;5111990;28;20206;-64
2022/07/27 03:38:23;;;;;;;3.37;2.10;;;12.60;65.40;;;;;;5112404;28;20205;-64
2022/07/27 03:40:51;;;;;;;2.83;2.10;;;12.60;68.10;;;;;;5111892;28;20249;-64
2022/07/27 03:43:18;;;;;;;5.40;2.47;;;12.50;69.90;;;;;;5112204;28;20227;-64
2022/07/27 03:45:45;;;;;;;3.57;2.03;;;12.50;72.40;;;;;;5112095;28;20200;-64
2022/07/27 03:48:12;;;;;;;4.67;2.10;;;12.50;75.10;;;;;;5111748;28;20210;-64
2022/07/27 03:50:38;;;;;;;6.63;2.30;;;12.40;76.80;;;;;;5111673;28;20231;-64
2022/07/27 03:53:05;;;;;;;5.00;2.27;;;12.40;78.80;;;;;;5112206;28;20204;-64
2022/07/27 03:55:32;;;;;;;6.13;2.47;;;12.40;80.00;;;;;;5112112;28;20203;-64
2022/07/27 03:58:00;;;;;;;5.40;3.00;;;12.30;82.30;;;;;;5111835;28;20250;-64
2022/07/27 04:00:27;;;;;;;4.97;2.30;;;12.30;84.40;;;;;;5112011;28;20223;-64
2022/07/27 04:02:53;;;;;;;8.83;3.13;;;12.30;86.60;;;;;;5111889;28;20208;-65
2022/07/27 04:05:20;;;;;;;5.17;2.90;;;12.30;89.70;;;;;;5112126;28;20264;-64
2022/07/27 04:07:47;;;;;;;7.17;3.07;;;12.20;91.00;;;;;;5111765;28;20200;-64
2022/07/27 04:10:14;;;;;;;6.33;3.00;;;12.20;92.60;;;;;;5111923;28;20283;-64
2022/07/27 04:12:40;;;;;;;5.80;3.07;;;12.30;94.10;;;;;;5111793;28;20200;-64
2022/07/27 04:15:09;;;;;;;6.73;3.60;;;12.30;95.60;;;;;;5111767;28;20204;-64
2022/07/27 04:17:36;;;;;;;6.87;3.20;;;12.40;96.80;;;;;;5111388;28;20211;-64
2022/07/27 04:20:04;;;;;;;8.50;3.47;;;12.40;97.90;;;;;;5111678;28;20769;-64
2022/07/27 04:22:30;;;;;;;6.20;3.40;;;12.50;98.60;;;;;;5111679;28;20297;-64
2022/07/27 04:24:57;;;;;;;6.73;3.10;;;12.40;99.10;;;;;;5111903;28;20208;-64
2022/07/27 04:27:24;;;;;;;6.03;3.20;;;12.50;99.80;;;;;;5111436;28;20209;-64
2022/07/27 04:29:50;;;;;;;6.97;3.23;;;12.50;99.90;;;;;;5111515;28;20225;-64
2022/07/27 04:32:18;;;;;;;7.07;3.30;;;12.50;99.90;;;;;;5111856;28;20209;-64
2022/07/27 04:34:45;;;;;;;7.27;3.33;;;12.40;99.90;;;;;;5113255;28;20205;-64
2022/07/27 04:37:12;;;;;;;5.50;3.50;;;12.40;99.90;;;;;;5113528;28;20204;-65
2022/07/27 04:39:39;;;;;;;9.17;3.40;;;12.40;99.90;;;;;;5113967;28;20233;-65
2022/07/27 04:42:05;;;;;;;9.77;3.20;;;12.40;99.90;;;;;;5115110;28;20227;-65
2022/07/27 04:44:32;;;;;;;8.33;3.50;;;12.40;99.90;;;;;;5114850;28;20207;-65
2022/07/27 04:46:59;;;;;;;4.97;3.40;;;12.50;99.90;;;;;;5114977;28;20213;-65
2022/07/27 04:49:27;;;;;;;3.87;2.83;;;12.50;99.90;;;;;;5114730;28;20224;-65
2022/07/27 04:51:54;;;;;;;6.60;3.40;;;12.50;99.90;;;;;;5114673;28;20723;-65
2022/07/27 04:54:20;;;;;;;6.57;2.87;;;12.50;99.90;;;;;;5115052;28;20266;-65
2022/07/27 04:56:47;;;;;;;8.30;3.43;;;12.50;99.90;;;;;;5114280;28;20203;-65
2022/07/27 04:59:14;;;;;;;7.87;2.80;;;12.60;99.90;;;;;;5114722;28;20215;-65
2022/07/27 05:01:40;;;;;;;5.77;3.20;;;12.70;99.90;;;;;;5114656;27;20247;-65
2022/07/27 05:04:07;;;;;;;12.47;4.80;;;12.80;99.90;;;;;;5115014;27;20561;-65
2022/07/27 05:06:35;;;;;;;7.20;4.00;;;12.80;98.80;;;;;;5114312;28;20210;-65
2022/07/27 05:09:02;;;;;;;3.67;2.93;;;12.90;97.30;;;;;;5114632;28;20286;-65
2022/07/27 05:11:29;;;;;;;3.80;2.90;;;12.90;96.40;;;;;;5114298;28;20279;-65
2022/07/27 05:13:56;;;;;;;5.30;3.40;;;13.00;95.10;;;;;;5114719;27;20206;-65
2022/07/27 05:16:23;;;;;;;5.17;3.27;;;13.10;94.10;;;;;;5114304;28;20254;-65
2022/07/27 05:18:50;;;;;;;5.70;4.00;;;13.10;93.60;;;;;;5114146;28;20269;-64
2022/07/27 05:21:16;;;;;;;8.03;3.90;;;13.00;93.90;;;;;;5114364;27;20232;-64
2022/07/27 05:23:44;;;;;;;8.63;3.93;;;13.10;93.50;;;;;;5114196;28;20553;-64
2022/07/27 05:26:11;;;;;;;8.63;3.60;;;13.10;93.00;;;;;;5113950;28;20619;-64
2022/07/27 05:28:38;;;;;;;6.00;3.13;;;13.10;92.90;;;;;;5114193;28;20210;-63
2022/07/27 05:31:04;;;;;;;8.47;3.73;;;13.10;93.10;;;;;;5114398;27;20279;-64
2022/07/27 05:33:31;;;;;;;4.73;3.60;;;13.20;92.90;;;;;;5113902;28;20223;-66
2022/07/27 05:35:58;;;;;;;8.10;3.60;;;13.10;95.00;;;;;;5113882;28;20211;-67
2022/07/27 05:38:25;;;;;;;11.97;3.67;;;13.10;95.10;;;;;;5113713;28;20215;-63
2022/07/27 05:40:53;;;;;;;8.97;3.70;;;13.20;94.20;;;;;;5114028;28;20230;-62
2022/07/27 05:43:19;;;;;;;6.40;3.87;;;13.30;92.90;;;;;;5113569;27;20212;-63
2022/07/27 05:45:46;;;;;;;5.17;3.50;;;13.40;89.20;;;;;;5113819;28;20770;-63
2022/07/27 05:48:13;;;;;;;9.23;3.50;;;13.40;77.20;;;;;;5113421;28;20214;-63
2022/07/27 05:50:39;;;;;;;7.80;3.87;;;13.50;79.40;;;;;;5113586;28;20234;-63
2022/07/27 05:53:07;;;;;;;5.23;3.47;;;13.60;71.00;;;;;;5113477;28;20208;-63
2022/07/27 05:55:34;;;;;;;7.27;3.10;;;13.60;59.20;;;;;;5113627;28;20298;-64
2022/07/27 05:58:02;;;;;;;5.90;3.33;;;13.60;54.60;;;;;;5113503;28;20207;-63
2022/07/27 06:00:29;;;;;;;9.93;3.20;;;13.60;43.50;;;;;;5102594;28;20217;-65
2022/07/27 06:02:55;;;;;;;7.57;3.83;;;13.60;51.70;;;;;;5111423;28;20210;-64
2022/07/27 06:05:22;;;;;;;5.03;2.33;;;13.60;51.40;;;;;;5112737;28;20210;-64
2022/07/27 06:08:02;;;;;;;4.03;2.60;;;13.80;48.50;;;;;;5112566;28;20260;-64
2022/07/27 06:10:29;;;;;;;8.83;2.47;;;13.80;42.00;;;;;;5112534;28;20265;-64
2022/07/27 06:12:56;;;;;;;6.73;2.23;;;14.00;33.10;;;;;;5112231;28;20542;-66
2022/07/27 06:15:25;;;;;;;5.70;2.37;;;13.90;6.60;;;;;;5112712;28;20256;-66
2022/07/27 06:17:52;;;;;;;3.37;2.00;;;14.00;15.50;;;;;;5112484;28;20207;-65
2022/07/27 06:20:21;;;;;;;27.10;7.17;;;14.00;17.20;;;;;;5112317;28;20270;-64
2022/07/27 06:22:49;;;;;;;5.30;2.87;;;14.10;25.40;;;;;;5112377;28;20210;-65
2022/07/27 06:25:17;;;;;;;5.93;2.63;;;14.10;24.70;;;;;;5112826;28;20207;-65
2022/07/27 06:27:43;;;;;;;4.73;2.43;;;14.20;20.20;;;;;;5112039;28;20207;-65
2022/07/27 06:30:12;;;;;;;5.57;2.50;;;14.30;22.30;;;;;;5112216;28;20231;-64
2022/07/27 06:32:40;;;;;;;5.27;2.47;;;14.40;14.40;;;;;;5111925;27;20280;-64
2022/07/27 06:35:08;;;;;;;11.90;2.93;;;14.50;1.00;;;;;;5112640;28;20214;-64
2022/07/27 06:37:35;;;;;;;5.47;2.03;;;14.60;1.00;;;;;;5112230;28;20282;-64
2022/07/27 06:40:01;;;;;;;2.40;1.53;;;14.70;1.00;;;;;;5112178;28;20223;-66
2022/07/27 06:42:28;;;;;;;4.87;1.70;;;14.80;1.00;;;;;;5112320;28;20203;-67
2022/07/27 06:44:55;;;;;;;6.33;1.80;;;14.80;1.00;;;;;;5112283;27;20200;-67
2022/07/27 06:47:22;;;;;;;4.77;2.40;;;14.90;1.00;;;;;;5111852;28;20630;-66
2022/07/27 06:49:50;;;;;;;4.07;1.97;;;14.90;1.00;;;;;;5112042;28;20219;-66
2022/07/27 06:52:17;;;;;;;5.07;1.97;;;14.90;1.00;;;;;;5112061;28;20265;-69
2022/07/27 06:54:43;;;;;;;5.13;2.03;;;15.00;1.00;;;;;;5112153;28;20872;-68
2022/07/27 06:57:10;;;;;;;7.23;1.97;;;15.00;1.00;;;;;;5111107;28;20211;-68
2022/07/27 06:59:37;;;;;;;4.67;1.87;;;14.90;1.00;;;;;;5111966;28;20231;-64
2022/07/27 07:02:03;;;;;;;6.47;1.63;;;14.90;1.00;;;;;;5111377;28;20222;-64
2022/07/27 07:04:31;;;;;;;5.43;1.77;;;15.10;1.00;;;;;;5112229;28;20204;-64
2022/07/27 07:07:00;;;;;;;2.57;1.30;;;15.00;1.00;;;;;;5112349;28;20248;-63
2022/07/27 07:09:27;;;;;;;3.37;1.33;;;15.10;1.00;;;;;;5112286;28;20256;-66
2022/07/27 07:11:54;;;;;;;11.30;3.67;;;15.00;1.00;;;;;;5111566;28;20221;-64
2022/07/27 07:14:21;;;;;;;4.00;2.47;;;15.10;1.00;;;;;;5111689;28;20260;-63
2022/07/27 07:16:48;;;;;;;3.60;1.10;;;15.00;1.00;;;;;;5111784;28;20604;-66
2022/07/27 07:19:15;;;;;;;3.67;1.07;;;15.10;1.00;;;;;;5111747;28;20659;-63
2022/07/27 07:21:41;;;;;;;4.10;1.20;;;15.20;99.90;;;;;;5111841;28;20211;-65
2022/07/27 07:24:10;;;;;;;8.37;1.70;;;15.30;99.90;;;;;;5111328;28;20211;-64
2022/07/27 07:26:38;;;;;;;7.23;1.60;;;15.30;99.90;;;;;;5111534;28;20214;-66
2022/07/27 07:29:05;;;;;;;2.13;1.13;;;15.40;99.90;;;;;;5109681;28;20200;-65
2022/07/27 07:31:32;;;;;;;5.60;1.27;;;15.60;1.00;;;;;;5111712;28;20587;-67
2022/07/27 07:33:59;;;;;;;3.53;1.37;;;15.80;99.90;;;;;;5111451;28;20203;-64
2022/07/27 07:36:26;;;;;;;5.33;1.37;;;16.10;1.00;;;;;;5111344;28;20577;-66
2022/07/27 07:38:56;;;;;;;3.83;1.10;;;16.00;1.00;;;;;;5111757;28;20208;-64
2022/07/27 07:41:24;;;;;;;3.80;1.27;;;16.20;1.00;;;;;;5110968;28;20255;-65
2022/07/27 07:43:51;;;;;;;3.53;0.87;;;16.30;1.00;;;;;;5111281;28;20559;-67
2022/07/27 07:46:18;;;;;;;2.50;0.97;;;16.60;99.90;;;;;;5111087;28;20199;-69
2022/07/27 07:48:44;;;;;;;4.83;1.00;;;16.80;99.90;;;;;;5111621;28;20236;-66
2022/07/27 07:51:11;;;;;;;3.90;0.67;;;17.20;99.90;;;;;;5111377;28;20239;-65
2022/07/27 07:53:38;;;;;;;1.63;0.70;;;17.40;99.90;;;;;;5110872;28;20204;-66
2022/07/27 07:56:05;;;;;;;3.53;1.33;;;17.60;99.90;;;;;;5110916;28;20260;-65
2022/07/27 07:58:33;;;;;;;3.27;0.70;;;17.50;99.90;;;;;;5111228;28;20208;-65
2022/07/27 08:01:00;;;;;;;3.27;0.97;;;17.60;99.90;;;;;;5111160;28;20310;-65
2022/07/27 08:03:26;;;;;;;3.57;1.00;;;17.20;99.90;;;;;;5110865;28;20203;-66
2022/07/27 08:05:53;;;;;;;2.67;0.80;;;17.10;99.90;;;;;;5110892;28;20211;-64
2022/07/27 08:08:20;;;;;;;1.57;0.93;;;17.10;99.90;;;;;;5111295;28;20282;-65
2022/07/27 08:10:47;;;;;;;2.23;1.00;;;16.80;99.90;;;;;;5113905;28;20231;-64
2022/07/27 08:13:13;;;;;;;3.37;1.00;;;16.60;99.90;;;;;;5114881;28;20659;-64
2022/07/27 08:15:41;;;;;;;5.43;1.03;;;16.40;99.90;;;;;;5114579;28;20207;-65
2022/07/27 08:18:09;;;;;;;6.70;1.20;;;16.40;99.90;;;;;;5114755;28;20629;-65
2022/07/27 08:20:36;;;;;;;1.10;0.60;;;16.70;99.90;;;;;;5115023;28;20323;-63
2022/07/27 08:23:03;;;;;;;1.80;0.70;;;17.10;99.90;;;;;;5114737;28;20211;-64
2022/07/27 08:25:30;;;;;;;1.43;0.60;;;17.10;99.90;;;;;;5114983;28;20205;-64
2022/07/27 08:27:57;;;;;;;1.10;0.70;;;17.00;99.90;;;;;;5114842;28;20204;-65
2022/07/27 08:30:24;;;;;;;1.33;0.70;;;16.60;99.90;;;;;;5115151;28;20224;-62
2022/07/27 08:32:57;;;;;;;2.93;0.60;;;16.50;99.90;;;;;;5114631;28;20637;-66
2022/07/27 08:35:24;;;;;;;2.00;0.60;;;16.60;99.90;;;;;;5111831;28;20689;-66
2022/07/27 08:37:51;;;;;;;0.80;0.50;;;17.10;99.90;;;;;;5113832;28;20208;-65
2022/07/27 08:40:19;;;;;;;1.03;0.80;;;17.30;99.90;;;;;;5114759;28;20318;-65
2022/07/27 08:42:46;;;;;;;2.10;0.70;;;17.40;99.90;;;;;;5114964;28;20238;-64
2022/07/27 08:45:14;;;;;;;1.63;0.60;;;17.40;99.90;;;;;;5114264;28;20695;-64
2022/07/27 08:47:44;;;;;;;1.47;0.63;;;17.40;99.90;;;;;;5114028;28;20200;-64
2022/07/27 08:50:25;;;;;;;1.97;0.80;;;17.50;99.90;;;;;;5114350;28;20220;-63
2022/07/27 08:52:55;;;;;;;1.00;0.67;;;17.50;99.90;;;;;;5114317;28;20223;-62
2022/07/27 08:55:22;;;;;;;1.27;0.70;;;17.60;99.90;;;;;;5114152;28;20304;-64
2022/07/27 08:57:49;;;;;;;2.63;0.50;;;17.80;99.90;;;;;;5114050;28;20211;-64
2022/07/27 09:00:16;;;;;;;1.83;0.80;;;18.10;99.90;;;;;;5113925;28;20288;-63
2022/07/27 09:02:44;;;;;;;3.20;0.67;;;18.20;99.90;;;;;;5113621;28;20208;-65
2022/07/27 09:05:12;;;;;;;1.80;0.83;;;18.60;99.90;;;;;;5113837;28;20200;-66
2022/07/27 09:07:39;;;;;;;2.67;0.90;;;18.70;99.90;;;;;;5113683;28;20666;-64
2022/07/27 09:10:07;;;;;;;3.30;1.00;;;18.80;99.90;;;;;;5114235;28;20224;-66
2022/07/27 09:12:34;;;;;;;2.63;0.73;;;18.80;99.90;;;;;;5113422;27;20223;-67
2022/07/27 09:15:09;;;;;;;2.03;0.63;;;18.90;99.90;;;;;;5114026;28;20210;-65
2022/07/27 09:17:36;;;;;;;2.40;0.50;;;19.10;99.90;;;;;;5113538;28;20211;-64
2022/07/27 09:20:06;;;;;;;1.83;0.70;;;18.80;99.90;;;;;;5113653;28;20239;-64
2022/07/27 09:22:43;;;;;;;2.60;1.00;;;19.00;99.90;;;;;;5113554;28;20208;-64
2022/07/27 09:25:13;;;;;;;2.90;0.93;;;19.20;99.90;;;;;;5113782;28;20207;-64
2022/07/27 09:27:40;;;;;;;3.13;1.00;;;19.00;99.90;;;;;;5112934;28;20298;-64
2022/07/27 09:30:10;;;;;;;4.93;1.30;;;18.90;99.90;;;;;;5114051;28;20227;-63
2022/07/27 09:32:37;;;;;;;4.00;1.20;;;19.10;99.90;;;;;;5111223;28;20228;-64
2022/07/27 09:35:20;;;;;;;3.80;1.40;;;18.70;99.90;;;;;;5113403;28;20200;-63
2022/07/27 09:37:48;;;;;;;1.70;1.40;;;18.10;99.90;;;;;;5111290;28;20203;-67
2022/07/27 09:40:16;;;;;;;2.33;1.53;;;18.40;99.90;;;;;;5112693;28;20231;-65
2022/07/27 09:42:43;;;;;;;3.30;1.43;;;18.20;99.90;;;;;;5113316;28;20581;-65
2022/07/27 09:45:32;;;;;;;4.33;1.70;;;17.90;99.90;;;;;;5113195;28;20200;-66
2022/07/27 09:48:12;;;;;;;1.83;1.30;;;17.80;99.90;;;;;;5113092;27;20203;-65
2022/07/27 09:50:42;;;;;;;3.07;1.13;;;18.00;99.90;;;;;;5112781;28;20238;-64
2022/07/27 09:53:15;;;;;;;2.63;1.10;;;18.10;99.90;;;;;;5112798;28;20224;-65
2022/07/27 09:55:42;;;;;;;2.47;1.77;;;18.40;99.90;;;;;;5113408;28;20207;-66
2022/07/27 09:58:08;;;;;;;3.00;1.30;;;18.20;99.90;;;;;;5112847;27;20208;-65
2022/07/27 10:00:35;;;;;;;3.23;1.10;;;18.20;99.90;;;;;;5113139;28;20737;-66
2022/07/27 10:03:02;;;;;;;3.23;1.10;;;18.20;99.90;;;;;;5112307;28;20199;-65
2022/07/27 10:05:29;;;;;;;2.20;1.00;;;18.30;99.90;;;;;;5113276;28;20211;-64
2022/07/27 10:07:56;;;;;;;3.40;1.40;;;18.10;99.90;;;;;;5112475;28;20256;-63
2022/07/27 10:10:24;;;;;;;2.53;1.00;;;17.80;99.90;;;;;;5113041;28;20576;-67
2022/07/27 10:12:51;;;;;;;4.23;1.30;;;18.20;99.90;;;;;;5110662;28;20717;-66
2022/07/27 10:15:18;;;;;;;1.67;1.10;;;18.30;99.90;;;;;;5112234;28;20208;-66
2022/07/27 10:17:46;;;;;;;3.50;1.67;;;17.70;99.90;;;;;;5112419;28;20669;-68
2022/07/27 10:20:16;;;;;;;4.80;1.37;;;17.60;99.90;;;;;;5112559;28;20235;-67
2022/07/27 10:22:51;;;;;;;4.17;1.10;;;17.60;99.90;;;;;;5112741;28;20211;-65
2022/07/27 10:25:18;;;;;;;3.43;1.00;;;17.60;99.90;;;;;;5112341;28;20199;-65
2022/07/27 10:27:48;;;;;;;1.20;0.90;;;17.60;99.90;;;;;;5112175;28;20211;-64
2022/07/27 10:30:17;;;;;;;3.20;1.10;;;17.70;99.90;;;;;;5112245;28;20306;-65
2022/07/27 10:32:45;;;;;;;1.73;0.80;;;17.80;99.90;;;;;;5111501;28;20649;-65
2022/07/27 10:35:33;;;;;;;3.00;0.83;;;18.20;99.90;;;;;;5112337;28;20214;-67
2022/07/27 10:38:11;;;;;;;2.03;0.93;;;18.40;99.90;;;;;;5112084;28;20253;-66
2022/07/27 10:40:39;;;;;;;3.07;0.97;;;18.50;99.90;;;;;;5112143;28;20242;-66
2022/07/27 10:43:10;;;;;;;1.53;0.80;;;18.50;99.90;;;;;;5111316;28;20207;-65
2022/07/27 10:45:41;;;;;;;3.37;0.90;;;18.40;99.90;;;;;;5108904;28;20204;-66
2022/07/27 10:48:08;;;;;;;3.73;0.90;;;18.60;99.90;;;;;;5111751;28;20235;-67
2022/07/27 10:50:34;;;;;;;1.10;0.47;;;18.90;99.90;;;;;;5111851;28;20281;-69
2022/07/27 10:53:13;;;;;;;7.63;1.00;;;19.20;99.90;;;;;;5111297;28;20227;-64
2022/07/27 10:55:45;;;;;;;3.57;1.10;;;19.40;99.90;;;;;;5112154;28;20218;-64
2022/07/27 10:58:49;;;;;;;2.00;0.70;;;19.50;99.90;;;;;;5111640;28;20855;-64
2022/07/27 11:01:17;;;;;;;2.53;0.90;;;19.60;99.90;;;;;;5111556;28;20230;-66
2022/07/27 11:03:51;;;;;;;1.93;0.90;;;19.30;99.90;;;;;;5111636;28;20783;-66
2022/07/27 11:06:27;;;;;;;3.47;1.20;;;19.30;99.90;;;;;;5111279;28;20670;-66
2022/07/27 11:08:55;;;;;;;3.30;0.93;;;19.60;99.90;;;;;;5112103;28;20650;-65
2022/07/27 11:11:24;;;;;;;4.10;0.90;;;19.80;99.90;;;;;;5111468;28;20831;-64
2022/07/27 11:13:54;;;;;;;2.47;1.20;;;20.00;99.90;;;;;;5111153;28;20219;-63
2022/07/27 11:16:21;;;;;;;2.87;1.13;;;19.90;99.90;;;;;;5108296;28;20654;-64
2022/07/27 11:18:54;;;;;;;2.47;1.30;;;19.50;99.90;;;;;;5111796;28;20239;-64
2022/07/27 11:21:22;;;;;;;3.60;1.03;;;19.00;99.90;;;;;;5111413;28;20319;-64
2022/07/27 11:23:50;;;;;;;1.43;0.90;;;18.90;99.90;;;;;;5111274;28;20264;-65
2022/07/27 11:26:17;;;;;;;2.87;1.10;;;18.80;99.90;;;;;;5110896;28;20208;-65
2022/07/27 11:28:44;;;;;;;1.20;0.80;;;18.80;99.90;;;;;;5111487;28;20211;-65
2022/07/27 11:31:14;;;;;;;3.17;1.10;;;18.90;99.90;;;;;;5111880;28;20712;-66
2022/07/27 11:33:56;;;;;;;2.97;0.90;;;19.20;99.90;;;;;;5111144;28;20230;-65
2022/07/27 11:36:35;;;;;;;1.80;0.70;;;19.40;99.90;;;;;;5108831;28;20203;-66
2022/07/27 11:39:03;;;;;;;2.77;0.70;;;19.50;99.90;;;;;;5110556;28;20203;-66
2022/07/27 11:41:32;;;;;;;1.67;0.80;;;19.40;99.90;;;;;;5111862;28;20203;-65
2022/07/27 11:44:01;;;;;;;5.33;0.93;;;19.30;99.90;;;;;;5113173;28;20222;-65
2022/07/27 11:46:30;;;;;;;1.90;0.70;;;19.60;99.90;;;;;;5115449;28;20207;-66
2022/07/27 11:49:00;;;;;;;5.20;0.90;;;19.80;99.90;;;;;;5115775;28;20286;-63
2022/07/27 11:51:27;;;;;;;1.97;0.80;;;19.80;99.90;;;;;;5115617;28;20223;-63
2022/07/27 11:54:02;;;;;;;1.43;1.07;;;19.50;99.90;;;;;;5115249;28;20238;-63
2022/07/27 11:56:30;;;;;;;2.23;0.93;;;19.60;99.90;;;;;;5115286;28;20240;-63
2022/07/27 11:59:07;;;;;;;4.37;0.93;;;19.50;99.90;;;;;;5115719;27;20200;-65
2022/07/27 12:01:37;;;;;;;3.07;0.93;;;19.60;99.90;;;;;;5115290;28;20207;-62
2022/07/27 12:04:09;;;;;;;2.43;1.20;;;19.10;99.90;;;;;;5114914;28;20230;-62
2022/07/27 12:06:37;;;;;;;4.40;0.90;;;19.00;99.90;;;;;;5114686;28;20260;-62
2022/07/27 12:09:06;;;;;;;1.87;0.90;;;19.00;99.90;;;;;;5115366;28;20218;-62
2022/07/27 12:11:54;;;;;;;2.00;0.77;;;19.20;99.90;;;;;;5115155;28;20210;-62
2022/07/27 12:14:33;;;;;;;1.40;0.90;;;19.30;99.90;;;;;;5114755;28;20199;-64
2022/07/27 12:17:17;;;;;;;2.63;1.00;;;19.40;99.90;;;;;;5112944;28;20211;-63
2022/07/27 12:19:51;;;;;;;2.67;1.10;;;19.40;99.90;;;;;;5115216;28;20242;-63
2022/07/27 12:22:30;;;;;;;1.20;0.70;;;19.30;99.90;;;;;;5114903;28;20196;-64
2022/07/27 12:24:59;;;;;;;1.97;0.97;;;19.20;99.90;;;;;;5114523;28;20242;-65
2022/07/27 12:27:27;;;;;;;3.17;0.93;;;19.20;99.90;;;;;;5114400;28;20208;-65
2022/07/27 12:30:05;;;;;;;2.07;1.03;;;19.10;99.90;;;;;;5114414;28;20318;-64
2022/07/27 12:32:35;;;;;;;2.70;0.97;;;19.10;99.90;;;;;;5114554;28;20230;-65
2022/07/27 12:35:14;;;;;;;2.00;0.93;;;19.10;99.90;;;;;;5114623;28;20204;-66
2022/07/27 12:37:42;;;;;;;7.37;1.23;;;18.90;99.90;;;;;;5114365;28;20235;-65
2022/07/27 12:40:14;;;;;;;2.30;1.13;;;19.20;99.90;;;;;;5114450;28;20586;-68
2022/07/27 12:42:41;;;;;;;2.93;0.97;;;19.60;99.90;;;;;;5114654;28;20933;-66
2022/07/27 12:45:19;;;;;;;4.57;1.30;;;19.90;99.90;;;;;;5114668;27;20264;-63
2022/07/27 12:47:47;;;;;;;2.43;0.77;;;19.80;99.90;;;;;;5113912;28;20203;-61
2022/07/27 12:50:16;;;;;;;2.93;1.13;;;20.00;99.90;;;;;;5114881;28;20235;-62
2022/07/27 12:52:46;;;;;;;3.70;1.30;;;20.40;99.90;;;;;;5112544;28;20231;-62
2022/07/27 12:55:22;;;;;;;5.47;1.17;;;20.60;99.90;;;;;;5128426;27;20199;-64